Record high temperature 52.3°C Record low temperature -14.8°C Record high gust 66.0 kts Record high average 44.0 kts Record daily rain 221.2 mm Record low windchill -23.5°C Record high barometer 1099.9 hPa Record low barometer 815.2 hPa
Daily high pressure 1020.7 hPa Daily low pressure 1016.3 hPa Daily low windchill 16.8°C Daily high heat index 24.8°C Daily high gust speed 8.4 kts NW Daily high average speed 8.4 kts NW
Potts Point Sydney
LAST READING AT TIME: 22:00 DATE: 22 May 2018, time of next update: 22:10
Current WeatherClear Current Temperature 16.8°C (62.2°F), Apparent temp 16.7°C
Maximum Temperature (since 9am)24.8°C at: 14:50 Minimum Temperature (since 9am)16.8°C at: 21:57
Average windspeed (ten minute)0.8 kts (1.5 kmh) Wind Direction (ten minute)SSE (158°)
Windchill Temperature 16.8°C Maximum Gust (last hour)5.4 kts (10.1 kmh) at: 21:57
Maximum Gust (since 9am)8.4 kts (15.5 kmh) at: 10:57 Maximum 1 minute average (since 9am)8.4 kts (15.5 kmh) at: 10:58
Rainfall (last hour)0.0 mm Rainfall (since 9am)0.0 mm (0.00 in.)---
Rainfall This month 0.0 mm (0.00 in.) Rainfall To date this year 44.0 mm (1.73 in.)
Maximum rain per minute (last hour)0.0 mm/min Maximum rain per hour (last 6 hours)0.0 mm/hour
Yesterdays rainfall 0.0 mm DewPoint 8.5°C (Wet Bulb :12.5°C )
Humidity 58 %, Humidex 17.4°C Barometer corrected to msl1020.7 hPa
Pressure change +1.1 hPa (last hour) Trend (last hour)RISING SLOWLY
Pressure change (last 12 hours)+2.4 hPa Pressure change (last 6 hours)+3.6 hPa
Current Indoor Temp. 26.0°C
Current Indoor Hum. 58%

This page is updated from recent data collected by a WS2310 weather station Use the Reload or Refresh facility on your browser to retrieve the latest data.


Click here for the last 24 hour graph
Click here for the last 48 hour graph
Click here for the last 72 hour graph
Click here for the month to date graph

Animated web cam image


Weather report/warning/Metars

Sydney Airport, Australia (YSSY) 33-57S 151-11E 3M
May 22, 2018 - 07:30 AM EDT / 2018.05.22 1130 UTC
Wind: from the W (270 degrees) at 7 MPH (6 KT) gusting to 20 MPH (17 KT):0
Visibility: greater than 7 mile(s):0
Temperature: 62 F (17 C)
Dew Point: 46 F (8 C)
Relative Humidity: 55%
Pressure (altimeter): 30.15 in. Hg (1021 hPa)
ob: YSSY 221130Z 27006G17KT CAVOK 17/08 Q1021
cycle: 11
Auckland Airport, New Zealand (NZAA) 37-01S 174-48E 6M
May 22, 2018 - 07:30 AM EDT / 2018.05.22 1130 UTC
Wind: from the NNW (340 degrees) at 15 MPH (13 KT):0
Visibility: greater than 7 mile(s):0
Sky conditions: mostly cloudy
Weather: Cumulonimbus clouds, towering cumulus clouds observed
Temperature: 60 F (16 C)
Dew Point: 57 F (14 C)
Relative Humidity: 87%
Pressure (altimeter): 29.44 in. Hg (0997 hPa)
ob: NZAA 221130Z AUTO 34013KT 9999 FEW020/// BKN035/// 16/14 Q0997 TEMPO TL1230 6000 SHRA FEW020TCU TEMPO FM1230 3000 TSRA SCT020CB
cycle: 11